createdAt,value
2018-10-11T00:00:43.842Z,25.70
2018-10-11T00:03:12.242Z,22.77
2018-10-11T00:05:40.709Z,26.53
2018-10-11T00:08:09.448Z,25.30
2018-10-11T00:10:38.249Z,22.60
2018-10-11T00:13:06.693Z,19.63
2018-10-11T00:15:35.076Z,22.13
2018-10-11T00:18:03.577Z,25.10
2018-10-11T00:20:32.036Z,22.90
2018-10-11T00:23:00.461Z,22.67
2018-10-11T00:25:28.861Z,19.87
2018-10-11T00:27:57.301Z,21.70
2018-10-11T00:30:25.711Z,23.90
2018-10-11T00:32:54.130Z,22.73
2018-10-11T00:35:22.557Z,21.83
2018-10-11T00:37:50.969Z,20.80
2018-10-11T00:40:19.436Z,26.90
2018-10-11T00:42:48.660Z,22.13
2018-10-11T00:45:17.030Z,20.33
2018-10-11T00:47:45.468Z,22.50
2018-10-11T00:50:14.025Z,23.90
2018-10-11T00:52:42.420Z,20.93
2018-10-11T00:55:10.959Z,19.97
2018-10-11T00:57:39.345Z,19.00
2018-10-11T01:00:07.793Z,20.30
2018-10-11T01:02:36.236Z,20.77
2018-10-11T01:05:04.709Z,19.00
2018-10-11T01:07:33.105Z,18.23
2018-10-11T01:10:01.580Z,20.10
2018-10-11T01:12:29.910Z,20.10
2018-10-11T01:14:58.304Z,22.63
2018-10-11T01:17:26.845Z,21.93
2018-10-11T01:19:55.728Z,20.33
2018-10-11T01:22:24.157Z,21.57
2018-10-11T01:24:52.558Z,23.30
2018-10-11T01:27:20.998Z,20.30
2018-10-11T01:29:49.460Z,19.50
2018-10-11T01:32:17.889Z,24.93
2018-10-11T01:34:46.309Z,22.37
2018-10-11T01:37:14.754Z,22.10
2018-10-11T01:39:43.190Z,20.90
2018-10-11T01:42:11.636Z,20.00
2018-10-11T01:44:40.476Z,22.43
2018-10-11T01:47:09.065Z,21.67
2018-10-11T01:49:37.529Z,25.87
2018-10-11T01:52:06.153Z,24.53
2018-10-11T01:54:34.603Z,22.03
2018-10-11T01:57:03.012Z,18.23
2018-10-11T01:59:31.427Z,18.67
2018-10-11T02:01:59.828Z,20.00
2018-10-11T02:04:28.781Z,21.00
2018-10-11T02:06:57.177Z,19.60
2018-10-11T02:09:25.680Z,19.13
2018-10-11T02:11:54.076Z,19.20
2018-10-11T02:14:22.475Z,21.63
2018-10-11T02:16:50.872Z,18.50
2018-10-11T02:19:19.316Z,22.10
2018-10-11T02:21:47.723Z,21.93
2018-10-11T02:24:16.153Z,20.20
2018-10-11T02:26:44.592Z,22.60
2018-10-11T02:29:12.987Z,22.73
2018-10-11T02:31:41.384Z,23.77
2018-10-11T02:34:09.820Z,22.70
2018-10-11T02:36:38.246Z,23.57
2018-10-11T02:39:07.957Z,25.80
2018-10-11T02:41:36.349Z,19.57
2018-10-11T02:44:04.882Z,21.07
2018-10-11T02:46:33.308Z,23.27
2018-10-11T02:49:01.870Z,22.63
2018-10-11T02:51:30.381Z,21.67
2018-10-11T02:53:58.865Z,18.33
2018-10-11T02:56:28.190Z,20.80
2018-10-11T02:59:07.852Z,22.10
2018-10-11T03:01:36.333Z,24.87
2018-10-11T03:04:06.126Z,19.83
2018-10-11T03:06:37.364Z,20.77
2018-10-11T03:09:06.888Z,23.27
2018-10-11T03:11:35.893Z,23.70
2018-10-11T03:14:04.362Z,19.00
2018-10-11T03:16:32.788Z,20.13
2018-10-11T03:19:01.271Z,22.07
2018-10-11T03:21:29.686Z,19.93
2018-10-11T03:23:58.089Z,23.93
2018-10-11T03:26:26.500Z,18.67
2018-10-11T03:28:54.910Z,25.93
2018-10-11T03:31:23.343Z,24.43
2018-10-11T03:33:51.766Z,19.47
2018-10-11T03:36:20.172Z,21.43
2018-10-11T03:38:48.572Z,22.63
2018-10-11T03:41:17.001Z,23.00
2018-10-11T03:43:45.402Z,23.67
2018-10-11T03:46:13.816Z,26.70
2018-10-11T03:48:42.264Z,20.73
2018-10-11T03:51:10.672Z,23.07
2018-10-11T03:53:39.188Z,22.03
2018-10-11T03:56:07.641Z,25.10
2018-10-11T03:58:36.068Z,19.17
2018-10-11T04:01:04.637Z,23.23
2018-10-11T04:03:33.052Z,20.00
2018-10-11T04:06:01.533Z,24.00
2018-10-11T04:08:29.955Z,24.77
2018-10-11T04:10:58.532Z,22.53
2018-10-11T04:13:26.928Z,26.17
2018-10-11T04:15:56.078Z,21.33
2018-10-11T04:18:24.568Z,25.10
2018-10-11T04:20:52.992Z,23.47
2018-10-11T04:23:25.480Z,25.70
2018-10-11T04:25:53.864Z,26.60
2018-10-11T04:28:22.928Z,28.90
2018-10-11T04:30:51.336Z,23.30
2018-10-11T04:33:20.340Z,22.73
2018-10-11T04:35:48.743Z,24.30
2018-10-11T04:38:17.217Z,20.77
2018-10-11T04:40:45.625Z,23.70
2018-10-11T04:43:14.594Z,24.83
2018-10-11T04:45:43.941Z,28.13
2018-10-11T04:48:12.825Z,27.00
2018-10-11T04:50:43.028Z,23.80
2018-10-11T04:53:12.542Z,24.63
2018-10-11T04:55:41.848Z,25.80
2018-10-11T04:58:10.441Z,26.57
2018-10-11T05:00:38.913Z,22.30
2018-10-11T05:03:08.158Z,26.37
2018-10-11T05:05:36.615Z,25.83
2018-10-11T05:08:05.024Z,24.20
2018-10-11T05:10:33.719Z,22.63
2018-10-11T05:13:02.244Z,24.80
2018-10-11T05:15:31.121Z,29.30
2018-10-11T05:17:59.666Z,27.10
2018-10-11T05:20:28.142Z,26.00
2018-10-11T05:22:57.240Z,28.53
2018-10-11T05:25:25.696Z,24.30
2018-10-11T05:27:54.124Z,27.50
2018-10-11T05:30:22.537Z,26.60
2018-10-11T05:32:50.993Z,27.00
2018-10-11T05:35:19.399Z,27.80
2018-10-11T05:37:47.818Z,27.20
2018-10-11T05:40:16.351Z,28.37
2018-10-11T05:42:44.840Z,27.47
2018-10-11T05:45:15.009Z,23.97
2018-10-11T05:47:44.334Z,23.10
2018-10-11T05:50:13.557Z,26.27
2018-10-11T05:52:45.871Z,25.13
2018-10-11T05:55:14.360Z,22.13
2018-10-11T05:57:43.631Z,32.33
2018-10-11T06:00:12.609Z,24.97
2018-10-11T06:02:59.969Z,26.10
2018-10-11T06:05:29.097Z,25.67
2018-10-11T06:07:58.312Z,25.97
2018-10-11T06:10:27.783Z,26.27
2018-10-11T06:12:56.391Z,32.10
2018-10-11T06:15:24.900Z,30.40
2018-10-11T06:17:53.587Z,25.60
2018-10-11T06:20:22.900Z,24.43
2018-10-11T06:22:51.379Z,29.87
2018-10-11T06:25:19.857Z,23.90
2018-10-11T06:27:48.305Z,27.40
2018-10-11T06:30:16.850Z,35.93
2018-10-11T06:32:45.668Z,25.33
2018-10-11T06:35:14.239Z,34.60
2018-10-11T06:37:43.551Z,24.43
2018-10-11T06:40:12.038Z,28.43
2018-10-11T06:42:40.903Z,24.07
2018-10-11T06:45:10.750Z,27.93
2018-10-11T06:47:39.613Z,28.37
2018-10-11T06:50:12.491Z,26.63
2018-10-11T06:52:40.952Z,27.27
2018-10-11T06:55:09.437Z,28.30
2018-10-11T06:57:37.842Z,25.00
2018-10-11T07:00:06.372Z,26.27
2018-10-11T07:02:34.783Z,23.90
2018-10-11T07:05:03.261Z,23.57
2018-10-11T07:07:31.705Z,32.00
2018-10-11T07:10:00.137Z,29.53
2018-10-11T07:12:28.554Z,26.20
2018-10-11T07:14:56.950Z,27.33
2018-10-11T07:17:25.329Z,26.97
2018-10-11T07:19:53.814Z,24.97
2018-10-11T07:22:22.969Z,37.07
2018-10-11T07:24:51.377Z,26.47
2018-10-11T07:27:19.792Z,28.10
2018-10-11T07:29:48.237Z,27.33
2018-10-11T07:32:16.657Z,28.73
2018-10-11T07:34:45.166Z,26.63
2018-10-11T07:37:13.683Z,25.27
2018-10-11T07:39:42.125Z,28.70
2018-10-11T07:42:10.514Z,29.87
2018-10-11T07:44:38.925Z,30.33
2018-10-11T07:47:07.591Z,31.13
2018-10-11T07:49:35.957Z,27.80
2018-10-11T07:52:05.131Z,32.60
2018-10-11T07:54:34.323Z,27.50
2018-10-11T07:57:03.397Z,28.93
2018-10-11T07:59:31.904Z,28.03
2018-10-11T08:02:00.326Z,25.43
2018-10-11T08:04:28.760Z,29.70
2018-10-11T08:06:57.171Z,35.33
2018-10-11T08:09:26.087Z,29.37
2018-10-11T08:11:54.588Z,29.43
2018-10-11T08:14:22.937Z,31.30
2018-10-11T08:16:51.639Z,28.03
2018-10-11T08:19:20.048Z,32.43
2018-10-11T08:21:50.342Z,30.80
2018-10-11T08:24:18.806Z,33.17
2018-10-11T08:26:47.317Z,25.80
2018-10-11T08:29:15.840Z,31.70
2018-10-11T08:31:44.378Z,34.80
2018-10-11T08:34:12.981Z,27.10
2018-10-11T08:36:41.378Z,25.80
2018-10-11T08:39:11.765Z,26.47
2018-10-11T08:41:40.534Z,29.53
2018-10-11T08:44:10.087Z,23.47
2018-10-11T08:46:38.516Z,24.50
2018-10-11T08:49:07.044Z,32.17
2018-10-11T08:51:35.615Z,26.47
2018-10-11T08:54:09.496Z,27.23
2018-10-11T08:56:37.893Z,24.70
2018-10-11T08:59:06.598Z,26.53
2018-10-11T09:01:34.984Z,25.30
2018-10-11T09:04:03.595Z,27.53
2018-10-11T09:06:31.933Z,26.23
2018-10-11T09:09:00.337Z,24.90
2018-10-11T09:11:28.927Z,26.03
2018-10-11T09:13:57.317Z,27.17
2018-10-11T09:16:25.725Z,23.40
2018-10-11T09:18:54.192Z,29.50
2018-10-11T09:21:22.653Z,21.83
2018-10-11T09:23:51.082Z,23.37
2018-10-11T09:26:19.555Z,21.60
2018-10-11T09:28:47.961Z,22.47
2018-10-11T09:31:16.590Z,22.13
2018-10-11T09:33:45.023Z,19.00
2018-10-11T09:36:13.442Z,24.17
2018-10-11T09:38:42.032Z,18.33
2018-10-11T09:41:10.448Z,20.30
2018-10-11T09:43:38.868Z,18.73
2018-10-11T09:46:07.335Z,23.67
2018-10-11T09:48:35.758Z,22.37
2018-10-11T09:51:04.736Z,21.20
2018-10-11T09:53:33.149Z,19.63
2018-10-11T09:56:01.590Z,19.90
2018-10-11T09:58:30.033Z,17.67
2018-10-11T10:01:03.862Z,20.13
2018-10-11T10:03:32.302Z,17.13
2018-10-11T10:06:00.741Z,20.53
2018-10-11T10:08:29.168Z,20.47
2018-10-11T10:10:57.601Z,16.90
2018-10-11T10:13:26.760Z,17.40
2018-10-11T10:15:55.200Z,15.10
2018-10-11T10:18:23.665Z,18.10
2018-10-11T10:20:52.784Z,15.20
2018-10-11T10:23:21.951Z,19.23
2018-10-11T10:25:50.398Z,16.77
2018-10-11T10:28:18.808Z,21.00
2018-10-11T10:30:52.013Z,17.30
2018-10-11T10:33:21.196Z,16.27
2018-10-11T10:35:49.778Z,17.60
2018-10-11T10:38:18.201Z,22.47
2018-10-11T10:40:46.580Z,20.03
2018-10-11T10:43:15.003Z,17.67
2018-10-11T10:45:43.449Z,17.93
2018-10-11T10:48:11.937Z,18.60
2018-10-11T10:50:40.367Z,16.93
2018-10-11T10:53:08.822Z,19.67
2018-10-11T10:55:37.236Z,21.43
2018-10-11T10:58:05.956Z,22.50
2018-10-11T11:00:34.457Z,19.37
2018-10-11T11:03:02.864Z,18.73
2018-10-11T11:05:31.264Z,18.13
2018-10-11T11:08:00.026Z,21.03
2018-10-11T11:10:28.427Z,16.17
2018-10-11T11:12:56.821Z,16.90
2018-10-11T11:15:25.257Z,18.00
2018-10-11T11:17:53.660Z,17.47
2018-10-11T11:20:22.074Z,17.63
2018-10-11T11:22:50.478Z,14.07
2018-10-11T11:25:18.935Z,17.10
2018-10-11T11:27:47.388Z,17.70
2018-10-11T11:30:16.823Z,14.80
2018-10-11T11:32:45.920Z,13.97
2018-10-11T11:35:14.397Z,14.40
2018-10-11T11:37:52.689Z,14.83
2018-10-11T11:40:21.135Z,15.47
2018-10-11T11:42:49.533Z,18.70
2018-10-11T11:45:17.933Z,19.33
2018-10-11T11:47:46.365Z,14.30
2018-10-11T11:50:14.843Z,18.47
2018-10-11T11:52:43.256Z,18.10
2018-10-11T11:55:11.649Z,15.83
2018-10-11T11:57:40.777Z,13.73
2018-10-11T12:00:09.258Z,15.90
2018-10-11T12:02:37.728Z,15.20
2018-10-11T12:05:06.200Z,14.93
2018-10-11T12:07:34.668Z,15.50
2018-10-11T12:10:03.080Z,13.37
2018-10-11T12:13:07.569Z,19.03
2018-10-11T12:15:36.796Z,16.87
2018-10-11T12:18:06.223Z,20.27
2018-10-11T12:20:35.914Z,15.17
2018-10-11T12:23:05.488Z,24.73
2018-10-11T12:25:34.284Z,19.27
2018-10-11T12:28:02.728Z,13.10
2018-10-11T12:30:31.489Z,11.67
2018-10-11T12:33:00.094Z,10.57
2018-10-11T12:35:28.924Z,16.37
2018-10-11T12:37:57.398Z,12.70
2018-10-11T12:40:25.896Z,11.30
2018-10-11T12:42:54.397Z,11.30
2018-10-11T12:45:22.873Z,9.67
2018-10-11T12:47:51.249Z,9.50
2018-10-11T12:50:19.653Z,10.60
2018-10-11T12:52:48.089Z,8.93
2018-10-11T12:55:17.290Z,11.10
2018-10-11T12:57:45.709Z,12.97
2018-10-11T13:00:15.470Z,10.40
2018-10-11T13:02:44.235Z,11.43
2018-10-11T13:05:12.859Z,9.50
2018-10-11T13:07:41.905Z,12.43
2018-10-11T13:10:10.357Z,15.93
2018-10-11T13:12:38.827Z,10.10
2018-10-11T13:15:08.014Z,9.07
2018-10-11T13:17:41.821Z,13.80
2018-10-11T13:20:05.554Z,14.10
2018-10-11T13:22:34.597Z,11.27
2018-10-11T13:25:03.093Z,13.20
2018-10-11T13:27:31.512Z,14.70
2018-10-11T13:30:00.433Z,11.13
2018-10-11T13:32:28.937Z,14.40
2018-10-11T13:34:57.403Z,9.83
2018-10-11T13:37:26.144Z,14.10
2018-10-11T13:39:57.689Z,12.80
2018-10-11T13:42:23.001Z,10.80
2018-10-11T13:44:51.406Z,10.83
2018-10-11T13:47:19.912Z,10.37
2018-10-11T13:49:48.248Z,8.00
2018-10-11T13:52:20.556Z,10.80
2018-10-11T13:54:45.693Z,18.57
2018-10-11T13:57:14.130Z,11.90
2018-10-11T13:59:42.565Z,11.03
2018-10-11T14:02:10.972Z,13.07
2018-10-11T14:04:39.462Z,7.97
2018-10-11T14:07:07.888Z,12.20
2018-10-11T14:09:36.312Z,10.20
2018-10-11T14:12:04.777Z,9.10
2018-10-11T14:14:33.269Z,11.90
2018-10-11T14:17:01.674Z,10.63
2018-10-11T14:19:30.121Z,8.27
2018-10-11T14:21:58.543Z,10.03
2018-10-11T14:24:26.973Z,7.40
2018-10-11T14:26:55.413Z,11.93
2018-10-11T14:29:23.856Z,11.33
2018-10-11T14:31:52.268Z,10.73
2018-10-11T14:34:20.693Z,15.30
2018-10-11T14:36:49.226Z,13.80
2018-10-11T14:39:17.557Z,11.07
2018-10-11T14:41:46.049Z,10.20
2018-10-11T14:44:14.488Z,9.63
2018-10-11T14:46:42.877Z,13.90
2018-10-11T14:49:11.324Z,10.70
2018-10-11T14:51:43.242Z,11.00
2018-10-11T14:54:15.760Z,8.83
2018-10-11T14:56:44.202Z,8.83
2018-10-11T14:59:12.628Z,9.67
2018-10-11T15:01:41.108Z,9.30
2018-10-11T15:04:09.529Z,8.77
2018-10-11T15:06:37.981Z,9.50
2018-10-11T15:09:08.937Z,10.40
2018-10-11T15:11:37.535Z,12.27
2018-10-11T15:14:05.969Z,9.77
2018-10-11T15:16:34.396Z,8.87
2018-10-11T15:19:03.789Z,14.30
2018-10-11T15:21:32.265Z,8.47
2018-10-11T15:24:00.733Z,13.20
2018-10-11T15:26:29.154Z,10.67
2018-10-11T15:28:57.585Z,9.87
2018-10-11T15:31:26.022Z,8.00
2018-10-11T15:33:54.466Z,8.60
2018-10-11T15:36:22.887Z,11.10
2018-10-11T15:38:51.305Z,15.10
2018-10-11T15:41:20.420Z,9.30
2018-10-11T15:43:49.050Z,9.90
2018-10-11T15:46:17.561Z,10.60
2018-10-11T15:48:46.642Z,14.67
2018-10-11T15:51:15.629Z,9.87
2018-10-11T15:53:44.040Z,11.60
2018-10-11T15:56:12.449Z,12.27
2018-10-11T15:58:41.114Z,13.50
2018-10-11T16:01:09.578Z,11.13
2018-10-11T16:03:37.972Z,9.27
2018-10-11T16:06:06.404Z,10.27
2018-10-11T16:08:36.034Z,11.27
2018-10-11T16:11:04.471Z,13.23
2018-10-11T16:13:33.465Z,11.97
2018-10-11T16:16:01.902Z,10.47
2018-10-11T16:18:30.573Z,11.63
2018-10-11T16:20:58.990Z,11.73
2018-10-11T16:23:27.508Z,9.83
2018-10-11T16:25:56.216Z,12.17
2018-10-11T16:28:25.508Z,11.77
2018-10-11T16:30:53.958Z,13.60
2018-10-11T16:33:22.373Z,11.90
2018-10-11T16:35:50.917Z,12.63
2018-10-11T16:38:19.382Z,13.03
2018-10-11T16:40:47.821Z,11.13
2018-10-11T16:43:16.236Z,12.37
2018-10-11T16:45:44.633Z,11.30
2018-10-11T16:48:13.205Z,14.70
2018-10-11T16:50:41.628Z,13.97
2018-10-11T16:53:10.078Z,11.70
2018-10-11T16:55:38.520Z,14.10
2018-10-11T16:58:07.431Z,12.70
2018-10-11T17:00:35.852Z,11.60
2018-10-11T17:03:04.320Z,15.17
2018-10-11T17:05:32.809Z,12.30
2018-10-11T17:08:01.381Z,12.30
2018-10-11T17:10:30.105Z,12.33
2018-10-11T17:12:58.562Z,11.80
2018-10-11T17:15:26.993Z,12.27
2018-10-11T17:17:55.440Z,11.10
2018-10-11T17:20:23.906Z,13.10
2018-10-11T17:22:52.915Z,12.60
2018-10-11T17:25:21.333Z,9.63
2018-10-11T17:27:49.801Z,18.10
2018-10-11T17:30:18.213Z,10.67
2018-10-11T17:32:46.624Z,15.50
2018-10-11T17:35:15.235Z,10.33
2018-10-11T17:37:43.617Z,12.50
2018-10-11T17:40:12.206Z,12.43
2018-10-11T17:42:40.702Z,11.53
2018-10-11T17:45:09.307Z,11.73
2018-10-11T17:47:37.770Z,9.47
2018-10-11T17:50:06.600Z,15.10
2018-10-11T17:52:35.231Z,11.97
2018-10-11T17:55:03.696Z,16.73
2018-10-11T17:57:32.256Z,12.27
2018-10-11T18:00:01.422Z,8.77
2018-10-11T18:02:29.991Z,12.10
2018-10-11T18:04:59.132Z,14.43
2018-10-11T18:07:27.733Z,11.00
2018-10-11T18:09:56.186Z,11.47
2018-10-11T18:12:24.658Z,12.17
2018-10-11T18:14:53.114Z,12.50
2018-10-11T18:17:21.565Z,13.27
2018-10-11T18:19:50.036Z,14.10
2018-10-11T18:22:18.500Z,15.53
2018-10-11T18:24:46.977Z,19.93
2018-10-11T18:27:15.477Z,13.63
2018-10-11T18:29:43.991Z,9.13
2018-10-11T18:32:12.428Z,14.73
2018-10-11T18:34:41.365Z,10.83
2018-10-11T18:37:09.848Z,10.07
2018-10-11T18:39:38.294Z,10.37
2018-10-11T18:42:06.858Z,14.30
2018-10-11T18:44:35.300Z,11.53
2018-10-11T18:47:03.761Z,11.00
2018-10-11T18:49:32.237Z,12.37
2018-10-11T18:52:00.745Z,12.43
2018-10-11T18:54:29.186Z,15.70
2018-10-11T18:56:57.670Z,13.77
2018-10-11T18:59:26.256Z,14.53
2018-10-11T19:01:56.139Z,12.50
2018-10-11T19:04:24.673Z,16.17
2018-10-11T19:06:53.123Z,14.60
2018-10-11T19:09:21.638Z,17.73
2018-10-11T19:11:50.103Z,13.20
2018-10-11T19:14:18.553Z,19.03
2018-10-11T19:16:47.009Z,16.80
2018-10-11T19:19:15.463Z,16.47
2018-10-11T19:21:44.551Z,14.33
2018-10-11T19:24:12.975Z,16.20
2018-10-11T19:26:41.429Z,13.70
2018-10-11T19:29:11.254Z,15.93
2018-10-11T19:31:39.748Z,17.67
2018-10-11T19:34:08.850Z,17.53
2018-10-11T19:36:37.431Z,16.60
2018-10-11T19:39:10.148Z,25.63
2018-10-11T19:41:38.609Z,17.83
2018-10-11T19:44:07.090Z,20.90
2018-10-11T19:46:35.592Z,16.20
2018-10-11T19:49:04.011Z,17.30
2018-10-11T19:51:32.482Z,24.73
2018-10-11T19:54:00.934Z,16.53
2018-10-11T19:56:29.402Z,19.97
2018-10-11T19:58:59.820Z,19.90
2018-10-11T20:01:28.254Z,18.23
2018-10-11T20:03:56.664Z,18.77
2018-10-11T20:06:26.575Z,21.87
2018-10-11T20:08:55.035Z,21.13
2018-10-11T20:11:23.573Z,17.57
2018-10-11T20:13:52.009Z,16.50
2018-10-11T20:16:20.431Z,16.23
2018-10-11T20:18:48.888Z,17.43
2018-10-11T20:21:17.643Z,15.07
2018-10-11T20:23:47.373Z,17.50
2018-10-11T20:26:15.796Z,17.47
2018-10-11T20:28:44.249Z,15.90
2018-10-11T20:31:13.609Z,20.00
2018-10-11T20:33:42.069Z,16.77
2018-10-11T20:36:11.397Z,18.83
2018-10-11T20:38:39.848Z,18.30
2018-10-11T20:41:08.278Z,20.83
2018-10-11T20:43:36.831Z,17.10
2018-10-11T20:46:05.186Z,18.20
2018-10-11T20:48:33.585Z,19.07
2018-10-11T20:51:02.067Z,17.73
2018-10-11T20:53:30.469Z,18.77
2018-10-11T20:55:59.016Z,22.20
2018-10-11T20:58:27.522Z,20.70
2018-10-11T21:00:55.959Z,19.67
2018-10-11T21:03:24.496Z,20.43
2018-10-11T21:05:54.014Z,17.73
2018-10-11T21:08:22.596Z,18.40
2018-10-11T21:10:51.041Z,20.00
2018-10-11T21:13:19.477Z,19.70
2018-10-11T21:15:47.963Z,19.20
2018-10-11T21:18:16.473Z,23.47
2018-10-11T21:20:44.900Z,21.27
2018-10-11T21:23:13.353Z,24.47
2018-10-11T21:25:41.808Z,18.33
2018-10-11T21:28:10.278Z,17.20
2018-10-11T21:30:38.686Z,21.40
2018-10-11T21:33:07.114Z,18.97
2018-10-11T21:35:35.542Z,21.80
2018-10-11T21:38:04.141Z,21.07
2018-10-11T21:40:32.605Z,20.50
2018-10-11T21:43:01.028Z,18.10
2018-10-11T21:45:29.468Z,22.00
2018-10-11T21:47:57.868Z,24.77
2018-10-11T21:50:26.300Z,18.60
2018-10-11T21:52:54.778Z,19.10
2018-10-11T21:55:23.191Z,20.43
2018-10-11T21:57:51.592Z,20.73
2018-10-11T22:00:23.804Z,22.47
2018-10-11T22:02:52.230Z,23.20
2018-10-11T22:05:20.645Z,21.03
2018-10-11T22:07:49.761Z,23.00
2018-10-11T22:10:18.201Z,28.23
2018-10-11T22:12:46.634Z,29.73
2018-10-11T22:15:15.122Z,26.83
2018-10-11T22:17:43.516Z,25.77
2018-10-11T22:20:12.677Z,28.63
2018-10-11T22:22:41.096Z,26.50
2018-10-11T22:25:09.629Z,25.00
2018-10-11T22:27:38.029Z,24.30
2018-10-11T22:30:06.533Z,24.60
2018-10-11T22:32:35.004Z,28.30
2018-10-11T22:35:03.548Z,29.53
2018-10-11T22:37:31.995Z,29.87
2018-10-11T22:40:00.453Z,30.10
2018-10-11T22:42:28.925Z,21.93
2018-10-11T22:44:57.427Z,24.13
2018-10-11T22:47:25.877Z,27.07
2018-10-11T22:49:54.485Z,29.10
2018-10-11T22:52:23.548Z,23.40
2018-10-11T22:54:51.979Z,27.17
2018-10-11T22:57:20.428Z,25.97
2018-10-11T22:59:48.942Z,29.30
2018-10-11T23:02:17.388Z,23.17
2018-10-11T23:04:45.823Z,24.33
2018-10-11T23:07:14.261Z,24.70
2018-10-11T23:09:42.704Z,24.87
2018-10-11T23:12:11.200Z,26.53
2018-10-11T23:14:39.708Z,22.10
2018-10-11T23:17:08.348Z,25.60
2018-10-11T23:19:36.854Z,27.27
2018-10-11T23:22:05.339Z,30.70
2018-10-11T23:24:33.780Z,26.20
2018-10-11T23:27:02.249Z,25.40
2018-10-11T23:29:30.770Z,26.30
2018-10-11T23:31:59.258Z,23.43
2018-10-11T23:34:27.689Z,25.93
2018-10-11T23:36:56.112Z,27.73
2018-10-11T23:39:27.495Z,26.00
2018-10-11T23:41:55.901Z,30.40
2018-10-11T23:44:24.346Z,26.33
2018-10-11T23:46:52.973Z,30.20
2018-10-11T23:49:21.372Z,24.50
2018-10-11T23:51:49.789Z,26.10
2018-10-11T23:54:18.281Z,27.20
2018-10-11T23:56:46.690Z,22.97
2018-10-11T23:59:15.116Z,21.87
